Time;durP1;ratioP1;P1;durP2;ratioP2;P2;SDS_P1;SDS_P2;PMS_P1;PMS_P2;Temp;Humidity;BMP_temperature;BMP_pressure;BME280_temperature;BME280_humidity;BME280_pressure;Samples;Min_cycle;Max_cycle;Signal;HPM_P1;HPM_P2
2023/09/21 00:02:55;;;;;;;3.08;1.80;;;;;19.50;99404.00;;;;10017203;29;20243;-90
2023/09/21 00:07:57;;;;;;;3.05;1.85;;;;;19.60;99398.00;;;;10010925;29;20225;-87
2023/09/21 00:13:00;;;;;;;4.95;1.92;;;;;19.70;99390.00;;;;9993511;29;20272;-90
2023/09/21 00:18:05;;;;;;;4.05;2.00;;;;;19.70;99388.00;;;;10016883;29;20253;-90
2023/09/21 00:23:08;;;;;;;7.82;1.95;;;;;19.70;99384.00;;;;10028900;29;20229;-88
2023/09/21 00:28:14;;;;;;;3.45;2.08;;;;;19.70;99373.00;;;;10026651;29;20224;-89
2023/09/21 00:33:17;;;;;;;2.58;1.70;;;;;19.70;99377.00;;;;9995941;29;20208;-92
2023/09/21 00:38:20;;;;;;;2.83;1.73;;;;;19.60;99366.00;;;;9988197;29;20928;-90
2023/09/21 00:43:24;;;;;;;3.60;1.75;;;;;19.50;99367.00;;;;10025625;29;20232;-88
2023/09/21 00:48:33;;;;;;;3.58;2.00;;;;;19.50;99364.00;;;;10031781;23;20296;-81
2023/09/21 00:53:36;;;;;;;3.70;2.00;;;;;19.40;99364.00;;;;10089203;29;20261;-80
2023/09/21 00:58:45;;;;;;;2.95;2.00;;;;;19.40;99357.00;;;;10075754;29;20220;-81
2023/09/21 01:03:50;;;;;;;4.50;2.10;;;;;19.30;99348.00;;;;10073455;29;20817;-79
2023/09/21 01:08:53;;;;;;;3.55;2.15;;;;;19.20;99353.00;;;;10105643;29;20255;-81
2023/09/21 01:13:55;;;;;;;2.72;1.73;;;;;19.20;99342.00;;;;10051758;29;20680;-81
2023/09/21 01:18:58;;;;;;;3.65;2.10;;;;;19.10;99347.00;;;;10101991;29;20259;-80
2023/09/21 01:24:00;;;;;;;3.58;2.00;;;;;19.10;99335.00;;;;10076932;29;20227;-80
2023/09/21 01:29:03;;;;;;;3.08;2.05;;;;;19.10;99327.00;;;;10065383;29;20218;-81
2023/09/21 01:34:05;;;;;;;2.22;1.50;;;;;19.00;99326.00;;;;10049906;29;20212;-80
2023/09/21 01:39:09;;;;;;;5.07;2.30;;;;;19.00;99321.00;;;;10061684;29;20224;-81
2023/09/21 01:44:11;;;;;;;4.13;2.08;;;;;18.90;99312.00;;;;10047573;29;20232;-82
2023/09/21 01:49:14;;;;;;;2.53;2.28;;;;;18.90;99323.00;;;;10064927;29;20215;-85
2023/09/21 01:54:17;;;;;;;2.05;1.80;;;;;18.90;99313.00;;;;10054798;29;20240;-84
2023/09/21 01:59:19;;;;;;;4.28;2.00;;;;;18.80;99310.00;;;;10076052;29;20235;-84
2023/09/21 02:04:21;;;;;;;4.25;1.95;;;;;18.70;99306.00;;;;10076564;29;20224;-84
2023/09/21 02:09:23;;;;;;;3.50;2.03;;;;;18.70;99295.00;;;;10099860;29;20214;-84
2023/09/21 02:14:25;;;;;;;3.42;2.38;;;;;18.70;99284.00;;;;10053370;29;20250;-84
2023/09/21 02:19:34;;;;;;;5.57;2.00;;;;;18.70;99288.00;;;;10060822;29;20218;-84
2023/09/21 02:24:36;;;;;;;4.47;2.05;;;;;18.70;99281.00;;;;10052779;29;20212;-84
2023/09/21 02:29:40;;;;;;;7.63;2.20;;;;;18.70;99275.00;;;;10085898;29;20220;-84
2023/09/21 02:34:42;;;;;;;2.83;1.85;;;;;18.70;99273.00;;;;10052585;29;20269;-84
2023/09/21 02:39:48;;;;;;;3.10;1.90;;;;;18.80;99261.00;;;;10046553;29;20231;-84
2023/09/21 02:44:50;;;;;;;3.10;1.90;;;;;18.80;99260.00;;;;10046150;29;20799;-85
2023/09/21 02:49:53;;;;;;;4.78;2.10;;;;;18.80;99255.00;;;;10073845;29;20303;-83
2023/09/21 02:54:57;;;;;;;2.35;2.00;;;;;18.80;99249.00;;;;10071285;29;20299;-83
2023/09/21 03:00:08;;;;;;;3.80;2.10;;;;;18.70;99247.00;;;;10056348;29;20235;-85
2023/09/21 03:05:13;;;;;;;5.22;2.05;;;;;18.70;99237.00;;;;10062028;29;20222;-86
2023/09/21 03:10:21;;;;;;;5.93;1.80;;;;;18.70;99239.00;;;;10074343;29;20220;-85
2023/09/21 03:15:24;;;;;;;5.03;2.00;;;;;18.70;99238.00;;;;10102878;29;20222;-85
2023/09/21 03:20:34;;;;;;;3.40;2.15;;;;;18.70;99253.00;;;;10099641;29;20227;-86
2023/09/21 03:25:42;;;;;;;3.72;1.98;;;;;18.70;99255.00;;;;10073290;29;20215;-83
2023/09/21 03:30:49;;;;;;;3.45;1.92;;;;;18.70;99245.00;;;;10112096;29;20192;-83
2023/09/21 03:35:53;;;;;;;5.45;2.15;;;;;18.60;99246.00;;;;10116261;29;20207;-86
2023/09/21 03:40:57;;;;;;;6.32;2.35;;;;;18.60;99234.00;;;;10069309;29;20232;-85
2023/09/21 03:45:59;;;;;;;3.00;1.98;;;;;18.50;99247.00;;;;10066913;29;20719;-86
2023/09/21 03:51:04;;;;;;;4.30;2.13;;;;;18.30;99238.00;;;;10068657;29;20763;-85
2023/09/21 03:56:06;;;;;;;5.22;2.58;;;;;18.00;99234.00;;;;10092183;29;20215;-84
2023/09/21 04:01:09;;;;;;;5.03;1.90;;;;;17.80;99234.00;;;;10051493;29;20283;-85
2023/09/21 04:06:11;;;;;;;5.15;2.40;;;;;17.70;99221.00;;;;10053322;29;20212;-86
2023/09/21 04:11:14;;;;;;;3.53;2.10;;;;;17.60;99226.00;;;;10051295;29;20211;-78
2023/09/21 04:16:16;;;;;;;4.22;2.03;;;;;17.50;99218.00;;;;10078884;29;20209;-78
2023/09/21 04:21:18;;;;;;;5.82;2.38;;;;;17.50;99216.00;;;;10085336;29;20263;-78
2023/09/21 04:26:21;;;;;;;3.85;2.25;;;;;17.40;99205.00;;;;10045703;29;20268;-79
2023/09/21 04:31:24;;;;;;;2.22;2.00;;;;;17.30;99201.00;;;;10041618;29;20300;-77
2023/09/21 04:36:26;;;;;;;3.03;2.15;;;;;17.30;99207.00;;;;10071356;29;20224;-77
2023/09/21 04:41:30;;;;;;;3.40;2.13;;;;;17.20;99212.00;;;;10077986;29;20239;-80
2023/09/21 04:46:32;;;;;;;3.72;2.42;;;;;17.00;99197.00;;;;10026869;29;20576;-79
2023/09/21 04:51:34;;;;;;;4.25;2.25;;;;;16.90;99195.00;;;;10057880;29;20320;-78
2023/09/21 04:56:37;;;;;;;4.30;3.05;;;;;16.70;99197.00;;;;10072486;29;20752;-78
2023/09/21 05:01:39;;;;;;;4.93;2.50;;;;;16.60;99188.00;;;;10090373;29;20224;-76
2023/09/21 05:06:42;;;;;;;6.68;2.55;;;;;16.60;99193.00;;;;10057115;29;20695;-76
2023/09/21 05:11:46;;;;;;;4.63;2.60;;;;;16.50;99187.00;;;;10068585;29;20818;-78
2023/09/21 05:16:48;;;;;;;4.10;2.35;;;;;16.50;99195.00;;;;10088651;29;20332;-77
2023/09/21 05:21:50;;;;;;;6.35;2.92;;;;;16.60;99204.00;;;;10088574;29;20288;-78
2023/09/21 05:26:53;;;;;;;4.55;2.40;;;;;16.60;99178.00;;;;10087373;29;21049;-78
2023/09/21 05:31:56;;;;;;;4.20;2.50;;;;;16.60;99186.00;;;;10072513;29;20212;-78
2023/09/21 05:36:58;;;;;;;8.48;2.60;;;;;16.60;99189.00;;;;10090244;29;20220;-78
2023/09/21 05:42:01;;;;;;;4.15;2.78;;;;;16.60;99185.00;;;;10093902;29;20216;-78
2023/09/21 05:47:03;;;;;;;4.70;3.00;;;;;16.60;99183.00;;;;10062163;29;20216;-78
2023/09/21 05:52:14;;;;;;;4.10;2.83;;;;;16.60;99197.00;;;;10071205;29;20209;-80
2023/09/21 05:57:16;;;;;;;7.95;3.33;;;;;16.60;99217.00;;;;10075586;29;20246;-78
2023/09/21 06:02:18;;;;;;;4.88;2.80;;;;;16.50;99211.00;;;;10081297;29;20239;-79
2023/09/21 06:07:20;;;;;;;6.13;2.40;;;;;16.50;99211.00;;;;10074403;29;20291;-81
2023/09/21 06:12:25;;;;;;;5.25;3.03;;;;;16.50;99217.00;;;;10053279;29;20223;-79
2023/09/21 06:17:28;;;;;;;5.15;2.97;;;;;16.50;99213.00;;;;10076218;29;20216;-79
2023/09/21 06:22:31;;;;;;;4.97;2.78;;;;;16.60;99216.00;;;;10064520;29;20734;-79
2023/09/21 06:27:36;;;;;;;5.18;2.67;;;;;16.60;99220.00;;;;10071588;29;20212;-79
2023/09/21 06:32:39;;;;;;;6.68;3.38;;;;;16.60;99226.00;;;;10071787;29;20280;-86
2023/09/21 06:37:41;;;;;;;5.13;3.30;;;;;16.60;99241.00;;;;10083302;29;20211;-83
2023/09/21 06:42:43;;;;;;;1.33;1.20;;;;;16.20;99225.00;;;;10119914;29;20235;-84
2023/09/21 06:47:47;;;;;;;1.67;0.93;;;;;15.70;99252.00;;;;10078739;29;20204;-84
2023/09/21 06:52:51;;;;;;;2.00;0.98;;;;;15.30;99259.00;;;;10065044;29;20239;-87
2023/09/21 06:57:54;;;;;;;2.00;1.10;;;;;15.10;99258.00;;;;10096447;29;20455;-86
2023/09/21 07:02:56;;;;;;;4.00;1.42;;;;;15.00;99257.00;;;;10126789;29;20287;-83
2023/09/21 07:07:58;;;;;;;2.55;1.20;;;;;14.90;99253.00;;;;10123162;29;20246;-86
2023/09/21 07:13:03;;;;;;;3.25;1.58;;;;;14.80;99264.00;;;;10112969;29;20200;-86
2023/09/21 07:18:06;;;;;;;5.22;1.48;;;;;14.80;99246.00;;;;10101732;29;20268;-86
2023/09/21 07:23:11;;;;;;;2.50;1.60;;;;;14.90;99245.00;;;;10091781;29;20330;-87
2023/09/21 07:28:22;;;;;;;4.45;1.73;;;;;15.10;99240.00;;;;10072830;29;20244;-86
2023/09/21 07:33:26;;;;;;;2.78;1.30;;;;;15.50;99229.00;;;;10066553;29;20658;-87
2023/09/21 07:38:33;;;;;;;1.95;1.65;;;;;15.60;99238.00;;;;10082020;29;20578;-74
2023/09/21 07:43:40;;;;;;;2.70;2.05;;;;;15.60;99234.00;;;;10090001;29;20228;-78
2023/09/21 07:48:57;;;;;;;2.63;1.33;;;;;15.70;99233.00;;;;10066669;29;20214;-78
2023/09/21 07:54:09;;;;;;;1.83;1.52;;;;;15.70;99237.00;;;;10068590;29;20216;-76
2023/09/21 07:59:25;;;;;;;3.03;1.35;;;;;15.70;99237.00;;;;10078799;29;20251;-76
2023/09/21 08:04:30;;;;;;;3.72;1.65;;;;;16.00;99231.00;;;;10069146;29;20224;-75
2023/09/21 08:09:36;;;;;;;2.45;1.30;;;;;16.00;99238.00;;;;10051277;29;21234;-77
2023/09/21 08:14:38;;;;;;;2.22;1.42;;;;;16.10;99236.00;;;;10059444;29;20214;-79
2023/09/21 08:19:41;;;;;;;3.50;1.40;;;;;16.00;99247.00;;;;10057557;29;20208;-78
2023/09/21 08:24:44;;;;;;;4.70;1.75;;;;;15.80;99260.00;;;;10076168;29;20235;-78
2023/09/21 08:29:49;;;;;;;2.60;1.40;;;;;15.70;99255.00;;;;10060840;29;20216;-76
2023/09/21 08:35:04;;;;;;;1.92;1.60;;;;;15.80;99256.00;;;;10054495;29;20257;-75
2023/09/21 08:40:10;;;;;;;2.95;1.63;;;;;15.80;99243.00;;;;10081260;29;20343;-76
2023/09/21 08:45:50;;;;;;;2.47;1.58;;;;;16.10;99223.00;;;;10065135;29;20246;-76
2023/09/21 08:51:53;;;;;;;5.03;1.80;;;;;16.20;99221.00;;;;10047538;29;20220;-84
2023/09/21 08:58:14;;;;;;;4.65;2.50;;;;;16.50;99207.00;;;;10083542;29;20223;-85
2023/09/21 09:03:42;;;;;;;6.28;2.60;;;;;16.90;99205.00;;;;10085971;29;20235;-86
2023/09/21 09:09:22;;;;;;;3.65;2.53;;;;;17.60;99200.00;;;;10093995;29;20200;-84
2023/09/21 09:14:30;;;;;;;3.03;2.20;;;;;17.90;99224.00;;;;10065125;29;20247;-82
2023/09/21 09:19:38;;;;;;;3.60;2.45;;;;;17.80;99238.00;;;;10085684;29;20216;-82
2023/09/21 09:24:40;;;;;;;3.67;2.40;;;;;17.70;99249.00;;;;10068375;29;20439;-84
2023/09/21 09:29:57;;;;;;;2.47;2.28;;;;;18.10;99229.00;;;;10099800;29;20271;-83
2023/09/21 09:35:14;;;;;;;3.45;2.20;;;;;18.60;99210.00;;;;10079730;29;20725;-84
2023/09/21 09:40:23;;;;;;;6.85;2.50;;;;;18.40;99205.00;;;;10100613;29;20252;-86
2023/09/21 09:45:31;;;;;;;3.13;2.15;;;;;18.30;99221.00;;;;10100435;29;20212;-83
2023/09/21 09:50:44;;;;;;;3.22;2.30;;;;;18.20;99230.00;;;;10067081;29;20331;-84
2023/09/21 09:55:46;;;;;;;2.22;2.03;;;;;18.00;99224.00;;;;10091445;29;20700;-85
2023/09/21 10:00:51;;;;;;;3.03;2.00;;;;;18.10;99234.00;;;;10074774;29;20733;-79
2023/09/21 10:06:00;;;;;;;3.95;2.50;;;;;18.00;99280.00;;;;10077592;29;20307;-78
2023/09/21 10:11:05;;;;;;;1.95;1.00;;;;;18.00;99292.00;;;;10073118;29;20578;-79
2023/09/21 10:16:10;;;;;;;2.22;1.00;;;;;17.80;99286.00;;;;10048201;29;20208;-78
2023/09/21 10:21:38;;;;;;;1.80;1.23;;;;;17.50;99292.00;;;;10084599;29;20228;-79
2023/09/21 10:26:50;;;;;;;1.25;1.10;;;;;17.30;99297.00;;;;10075312;29;20315;-77
2023/09/21 10:31:55;;;;;;;3.92;1.35;;;;;16.90;99312.00;;;;10097003;29;20292;-77
2023/09/21 10:37:10;;;;;;;2.10;1.40;;;;;16.70;99288.00;;;;10100515;29;20226;-78
2023/09/21 10:42:19;;;;;;;2.78;1.20;;;;;16.50;99284.00;;;;10095679;29;20227;-78
2023/09/21 10:47:35;;;;;;;2.70;1.35;;;;;16.70;99293.00;;;;10061345;29;20295;-78
2023/09/21 10:52:45;;;;;;;1.92;1.10;;;;;16.60;99290.00;;;;10058873;29;20236;-78
2023/09/21 10:57:55;;;;;;;2.75;1.50;;;;;16.60;99273.00;;;;10076983;29;20240;-78
2023/09/21 11:03:04;;;;;;;1.50;1.30;;;;;16.70;99266.00;;;;10053660;29;20751;-78
2023/09/21 11:08:10;;;;;;;3.65;1.13;;;;;17.00;99250.00;;;;10066941;29;20220;-79
2023/09/21 11:13:23;;;;;;;2.15;1.40;;;;;17.10;99229.00;;;;10098834;29;20208;-86
2023/09/21 11:18:28;;;;;;;5.57;1.83;;;;;17.20;99214.00;;;;10109965;29;20216;-88
2023/09/21 11:23:43;;;;;;;2.85;1.45;;;;;17.40;99213.00;;;;10121272;29;20299;-84
2023/09/21 11:28:49;;;;;;;1.90;1.05;;;;;17.20;99226.00;;;;10119977;29;20224;-85
2023/09/21 11:33:53;;;;;;;2.30;0.90;;;;;17.00;99214.00;;;;10111144;29;20235;-86
2023/09/21 11:38:56;;;;;;;1.38;0.95;;;;;17.10;99224.00;;;;11114232;23;20709;-88
2023/09/21 11:44:04;;;;;;;3.20;1.10;;;;;17.40;99208.00;;;;10569238;23;20246;-89
2023/09/21 11:49:14;;;;;;;4.68;1.10;;;;;17.10;99239.00;;;;10044266;29;20265;-88
2023/09/21 11:54:18;;;;;;;2.15;1.00;;;;;17.10;99194.00;;;;10788927;23;20251;-85
2023/09/21 11:59:25;;;;;;;1.88;1.52;;;;;17.20;99191.00;;;;10344978;24;20228;-88
2023/09/21 12:04:29;;;;;;;3.38;1.40;;;;;16.90;99259.00;;;;10081852;29;20227;-89
2023/09/21 12:09:41;;;;;;;11.07;1.65;;;;;16.70;99256.00;;;;10585517;23;20636;-84
2023/09/21 12:20:31;;;;;;;1.55;1.27;;;;;16.80;99188.00;;;;10062967;29;20316;-80
2023/09/21 12:25:33;;;;;;;2.75;1.50;;;;;16.70;99181.00;;;;10025428;29;20386;-79
2023/09/21 12:30:44;;;;;;;1.60;1.50;;;;;16.80;99187.00;;;;10009988;29;20265;-78
2023/09/21 12:35:46;;;;;;;2.13;1.70;;;;;16.70;99177.00;;;;10030357;29;20228;-80
2023/09/21 12:40:51;;;;;;;3.17;2.05;;;;;16.60;99155.00;;;;10007618;29;20225;-79
2023/09/21 12:45:59;;;;;;;4.35;2.20;;;;;16.70;99130.00;;;;10028510;29;20217;-79
2023/09/21 12:51:04;;;;;;;2.25;1.55;;;;;16.80;99126.00;;;;10031615;29;20241;-79
2023/09/21 12:56:15;;;;;;;1.70;1.60;;;;;16.80;99117.00;;;;10034216;29;20221;-80
2023/09/21 13:01:21;;;;;;;4.25;1.63;;;;;16.80;99108.00;;;;10014272;29;20464;-81
2023/09/21 13:06:31;;;;;;;2.08;1.42;;;;;16.60;99101.00;;;;10025032;29;20244;-79
2023/09/21 13:11:34;;;;;;;1.75;1.13;;;;;16.70;99072.00;;;;10016369;29;20224;-79
2023/09/21 13:16:36;;;;;;;3.50;1.40;;;;;16.90;99072.00;;;;10003570;29;20217;-78
2023/09/21 13:21:41;;;;;;;4.50;1.40;;;;;16.70;99081.00;;;;10026621;29;20252;-78
2023/09/21 13:26:43;;;;;;;2.35;1.40;;;;;16.60;99071.00;;;;10032154;29;20237;-79
2023/09/21 13:31:45;;;;;;;3.70;1.17;;;;;16.30;99101.00;;;;10075917;29;20223;-83
2023/09/21 13:36:49;;;;;;;6.22;1.40;;;;;16.20;99142.00;;;;10071733;29;20278;-86
2023/09/21 13:41:53;;;;;;;2.78;1.80;;;;;16.20;99086.00;;;;10034668;29;20218;-84
2023/09/21 13:46:57;;;;;;;3.00;1.75;;;;;16.10;99115.00;;;;10045564;29;20217;-84
2023/09/21 13:52:00;;;;;;;3.20;1.33;;;;;16.10;99091.00;;;;10017269;29;20217;-84
2023/09/21 13:57:03;;;;;;;3.03;1.20;;;;;16.00;99088.00;;;;9999686;29;20216;-86
2023/09/21 14:02:09;;;;;;;2.10;1.27;;;;;15.90;99079.00;;;;9995075;29;20289;-88
2023/09/21 14:07:11;;;;;;;1.63;0.90;;;;;15.80;99072.00;;;;10012701;29;20300;-86
2023/09/21 14:12:14;;;;;;;3.10;0.90;;;;;15.70;99106.00;;;;10015984;29;20664;-86
2023/09/21 14:17:17;;;;;;;2.90;1.20;;;;;15.70;99092.00;;;;10009527;29;20239;-86
2023/09/21 14:22:18;;;;;;;3.67;1.08;;;;;15.80;99087.00;;;;10015307;29;20221;-83
2023/09/21 14:27:39;;;;;;;1.02;0.77;;;;;15.70;99083.00;;;;10021314;29;20266;-85
2023/09/21 14:32:41;;;;;;;1.45;0.93;;;;;15.70;99066.00;;;;10021001;29;20239;-83
2023/09/21 14:37:43;;;;;;;3.10;1.00;;;;;15.70;99086.00;;;;9984615;29;20604;-83
2023/09/21 14:42:45;;;;;;;3.45;1.00;;;;;15.90;99092.00;;;;10026825;29;20649;-83
2023/09/21 14:47:53;;;;;;;3.08;0.90;;;;;16.00;99077.00;;;;10016895;29;20571;-83
2023/09/21 14:52:55;;;;;;;2.42;0.85;;;;;16.20;99053.00;;;;10035163;29;21852;-83
2023/09/21 14:57:57;;;;;;;1.77;0.77;;;;;16.40;99044.00;;;;10024872;29;20313;-84
2023/09/21 15:02:59;;;;;;;1.25;0.77;;;;;16.60;99044.00;;;;10014060;29;20240;-82
2023/09/21 15:08:02;;;;;;;2.78;0.70;;;;;16.50;99062.00;;;;9987505;29;20641;-82
2023/09/21 15:13:14;;;;;;;3.10;1.10;;;;;16.40;99064.00;;;;10031743;29;20213;-82
2023/09/21 15:18:16;;;;;;;2.22;1.13;;;;;16.20;99068.00;;;;10012078;29;20238;-81
2023/09/21 15:23:19;;;;;;;2.53;1.05;;;;;16.10;99086.00;;;;10028832;29;20243;-82
2023/09/21 15:28:22;;;;;;;1.63;0.88;;;;;16.00;99079.00;;;;10019242;29;20566;-82
2023/09/21 15:33:24;;;;;;;1.75;1.20;;;;;16.00;99081.00;;;;10016414;29;20320;-83
2023/09/21 15:38:35;;;;;;;1.00;0.90;;;;;16.00;99091.00;;;;9997800;29;20227;-82
2023/09/21 15:43:37;;;;;;;1.60;1.10;;;;;15.90;99072.00;;;;9990979;29;20325;-82
2023/09/21 15:48:39;;;;;;;1.63;1.27;;;;;15.80;99069.00;;;;10000002;29;20300;-86
2023/09/21 15:53:42;;;;;;;3.30;1.30;;;;;15.80;99071.00;;;;9991823;29;20217;-84
2023/09/21 15:58:44;;;;;;;2.40;1.55;;;;;15.80;99075.00;;;;9997857;29;20716;-83
2023/09/21 16:03:47;;;;;;;2.10;1.67;;;;;15.70;99071.00;;;;10030318;29;20245;-83
2023/09/21 16:08:49;;;;;;;2.90;1.90;;;;;15.70;99058.00;;;;10029701;29;20305;-85
2023/09/21 16:13:51;;;;;;;3.08;1.75;;;;;15.70;99059.00;;;;10015457;29;20580;-85
2023/09/21 16:18:54;;;;;;;4.35;1.58;;;;;15.70;99054.00;;;;9987795;29;20205;-83
2023/09/21 16:23:56;;;;;;;4.28;1.15;;;;;15.70;99025.00;;;;10013995;29;20315;-83
2023/09/21 16:28:59;;;;;;;2.30;1.00;;;;;15.60;99023.00;;;;10020675;29;20281;-85
2023/09/21 16:34:01;;;;;;;2.90;1.30;;;;;15.50;99043.00;;;;9998110;29;20209;-84
2023/09/21 16:39:03;;;;;;;3.38;1.20;;;;;15.50;99049.00;;;;10014225;29;20227;-86
2023/09/21 16:44:06;;;;;;;4.07;0.90;;;;;15.40;99063.00;;;;10005315;29;20233;-86
2023/09/21 16:49:08;;;;;;;2.55;1.00;;;;;15.40;99082.00;;;;10008455;29;20217;-85
2023/09/21 16:54:10;;;;;;;1.60;1.08;;;;;15.40;99079.00;;;;10009802;29;20295;-85
2023/09/21 16:59:12;;;;;;;1.30;1.00;;;;;15.30;99075.00;;;;10021150;29;20219;-85
2023/09/21 17:04:14;;;;;;;1.05;0.95;;;;;15.30;99069.00;;;;10014866;29;20232;-85
2023/09/21 17:09:16;;;;;;;1.08;0.90;;;;;15.30;99062.00;;;;10025910;29;20221;-78
2023/09/21 17:14:19;;;;;;;1.33;0.80;;;;;15.20;99063.00;;;;10037142;29;20224;-79
2023/09/21 17:19:21;;;;;;;2.15;1.00;;;;;15.10;99060.00;;;;10030319;29;20244;-78
2023/09/21 17:24:23;;;;;;;2.20;1.10;;;;;15.00;99077.00;;;;10016894;29;20255;-78
2023/09/21 17:29:27;;;;;;;0.90;0.70;;;;;14.90;99081.00;;;;10009633;29;21101;-79
2023/09/21 17:34:31;;;;;;;2.58;0.85;;;;;14.90;99078.00;;;;10017561;29;20221;-78
2023/09/21 17:39:33;;;;;;;2.78;1.02;;;;;14.90;99076.00;;;;10012246;29;20676;-79
2023/09/21 17:44:35;;;;;;;2.58;1.20;;;;;14.80;99061.00;;;;10025822;29;20352;-78
2023/09/21 17:49:39;;;;;;;2.97;1.10;;;;;14.70;99061.00;;;;10008400;29;20213;-78
2023/09/21 17:54:41;;;;;;;2.83;0.88;;;;;14.70;99080.00;;;;10038800;29;20245;-79
2023/09/21 17:59:43;;;;;;;4.82;1.70;;;;;14.60;99092.00;;;;10006765;29;20596;-79
2023/09/21 18:04:45;;;;;;;2.35;0.90;;;;;14.50;99110.00;;;;9991298;29;20229;-80
2023/09/21 18:09:47;;;;;;;1.50;1.20;;;;;14.50;99105.00;;;;9999416;29;20232;-80
2023/09/21 18:14:50;;;;;;;1.15;0.88;;;;;14.60;99114.00;;;;9999050;29;20693;-79
2023/09/21 18:19:53;;;;;;;3.00;1.10;;;;;14.60;99118.00;;;;10017347;29;20259;-78
2023/09/21 18:24:57;;;;;;;3.97;1.30;;;;;14.60;99111.00;;;;10016512;29;20268;-78
2023/09/21 18:30:00;;;;;;;3.50;1.13;;;;;14.60;99119.00;;;;10024361;29;20220;-78
2023/09/21 18:35:04;;;;;;;1.83;0.90;;;;;14.60;99123.00;;;;10002596;29;20270;-78
2023/09/21 18:40:09;;;;;;;2.45;1.50;;;;;14.60;99122.00;;;;10002247;29;20268;-78
2023/09/21 18:45:11;;;;;;;4.75;1.50;;;;;14.60;99134.00;;;;9998002;29;20235;-78
2023/09/21 18:50:14;;;;;;;4.32;1.40;;;;;14.60;99151.00;;;;10026472;29;20224;-76
2023/09/21 18:55:17;;;;;;;5.20;1.60;;;;;14.60;99149.00;;;;10014860;29;20217;-77
2023/09/21 19:00:21;;;;;;;3.80;2.05;;;;;14.60;99158.00;;;;10005126;29;20233;-78
2023/09/21 19:05:24;;;;;;;4.20;2.30;;;;;14.60;99160.00;;;;10014705;29;20650;-76
2023/09/21 19:10:27;;;;;;;3.13;2.83;;;;;14.60;99169.00;;;;10026533;29;20224;-78
2023/09/21 19:15:30;;;;;;;6.93;2.95;;;;;14.50;99180.00;;;;9984686;29;20232;-79
2023/09/21 19:20:33;;;;;;;5.07;3.95;;;;;14.50;99187.00;;;;10023170;29;20227;-77
2023/09/21 19:25:36;;;;;;;4.53;4.13;;;;;14.50;99194.00;;;;10002488;29;22082;-79
2023/09/21 19:30:39;;;;;;;6.45;4.65;;;;;14.50;99218.00;;;;9979302;29;20225;-82
2023/09/21 19:35:42;;;;;;;6.57;5.97;;;;;14.60;99223.00;;;;10001027;29;20469;-84
2023/09/21 19:40:44;;;;;;;12.30;5.70;;;;;14.60;99240.00;;;;10012649;29;20223;-83
2023/09/21 19:45:46;;;;;;;5.28;4.78;;;;;14.50;99247.00;;;;9996788;29;20233;-83
2023/09/21 19:50:52;;;;;;;6.63;5.35;;;;;14.40;99253.00;;;;10005628;29;20235;-83
2023/09/21 19:55:54;;;;;;;10.50;6.32;;;;;14.30;99258.00;;;;10012323;29;20220;-83
2023/09/21 20:00:56;;;;;;;11.52;7.57;;;;;14.30;99263.00;;;;9999947;29;20323;-82
2023/09/21 20:05:58;;;;;;;9.75;8.30;;;;;14.20;99259.00;;;;10006362;29;20358;-83
2023/09/21 20:11:01;;;;;;;11.68;8.60;;;;;14.10;99261.00;;;;9998352;29;20224;-83
2023/09/21 20:16:12;;;;;;;12.82;8.77;;;;;14.00;99266.00;;;;9992044;29;20595;-82
2023/09/21 20:21:14;;;;;;;13.73;9.98;;;;;13.90;99259.00;;;;10035096;29;20268;-83
2023/09/21 20:26:17;;;;;;;15.97;9.83;;;;;13.80;99263.00;;;;10003674;29;20232;-84
2023/09/21 20:31:19;;;;;;;18.15;10.77;;;;;13.80;99277.00;;;;10004623;29;20224;-83
2023/09/21 20:36:21;;;;;;;15.98;10.98;;;;;13.70;99289.00;;;;9991259;29;20221;-84
2023/09/21 20:41:24;;;;;;;19.77;11.90;;;;;13.70;99304.00;;;;10032577;29;20221;-80
2023/09/21 20:46:26;;;;;;;17.27;12.17;;;;;13.70;99308.00;;;;10019012;29;20913;-80
2023/09/21 20:51:28;;;;;;;18.90;12.00;;;;;13.70;99309.00;;;;10008381;29;20726;-79
2023/09/21 20:56:31;;;;;;;18.60;11.83;;;;;13.70;99314.00;;;;10009429;29;20543;-80
2023/09/21 21:01:34;;;;;;;16.17;11.27;;;;;13.60;99312.00;;;;10008594;29;20265;-80
2023/09/21 21:06:36;;;;;;;16.83;10.93;;;;;13.50;99325.00;;;;9995282;29;20828;-79
2023/09/21 21:11:39;;;;;;;17.57;10.50;;;;;13.30;99330.00;;;;10008032;29;20229;-79
2023/09/21 21:16:41;;;;;;;14.13;9.70;;;;;13.10;99336.00;;;;10019933;29;20212;-78
2023/09/21 21:21:43;;;;;;;17.70;10.98;;;;;13.00;99340.00;;;;10012390;29;21047;-79
2023/09/21 21:26:45;;;;;;;18.00;10.50;;;;;13.00;99342.00;;;;10034214;29;20220;-79
2023/09/21 21:31:48;;;;;;;19.30;11.23;;;;;13.00;99360.00;;;;9984919;29;20224;-79
2023/09/21 21:36:50;;;;;;;16.43;11.90;;;;;13.00;99360.00;;;;10010643;29;20240;-79
2023/09/21 21:41:52;;;;;;;26.57;13.30;;;;;13.00;99359.00;;;;9980184;29;20235;-79
2023/09/21 21:46:54;;;;;;;25.17;12.10;;;;;13.00;99358.00;;;;10014577;29;20648;-78
2023/09/21 21:51:58;;;;;;;18.87;11.47;;;;;12.90;99363.00;;;;10013942;29;20309;-82
2023/09/21 21:57:01;;;;;;;18.93;11.73;;;;;12.70;99356.00;;;;10037526;29;20216;-83
2023/09/21 22:02:03;;;;;;;20.80;11.10;;;;;12.60;99356.00;;;;10027289;29;20295;-83
2023/09/21 22:07:05;;;;;;;23.73;11.17;;;;;12.50;99352.00;;;;10019325;29;20257;-83
2023/09/21 22:12:09;;;;;;;18.97;10.73;;;;;12.50;99362.00;;;;10031376;29;20735;-84
2023/09/21 22:17:11;;;;;;;19.27;10.23;;;;;12.50;99371.00;;;;10000578;29;20292;-83
2023/09/21 22:22:13;;;;;;;18.70;11.13;;;;;12.50;99378.00;;;;9992392;29;20218;-84
2023/09/21 22:27:15;;;;;;;19.17;10.87;;;;;12.50;99381.00;;;;10011817;29;20733;-84
2023/09/21 22:32:17;;;;;;;20.43;11.50;;;;;12.50;99383.00;;;;10014577;29;20222;-83
2023/09/21 22:37:19;;;;;;;17.40;10.97;;;;;12.40;99377.00;;;;10017465;29;20221;-84
2023/09/21 22:42:22;;;;;;;20.63;12.03;;;;;12.40;99383.00;;;;9999990;29;20216;-83
2023/09/21 22:47:30;;;;;;;17.20;10.77;;;;;12.30;99367.00;;;;10005643;29;20224;-85
2023/09/21 22:52:33;;;;;;;23.30;10.77;;;;;12.30;99367.00;;;;10016141;29;20220;-84
2023/09/21 22:57:36;;;;;;;21.17;11.70;;;;;12.30;99364.00;;;;9988421;29;20220;-84
2023/09/21 23:02:38;;;;;;;19.30;10.83;;;;;12.30;99357.00;;;;10034737;29;20232;-78
2023/09/21 23:07:42;;;;;;;17.43;10.80;;;;;12.30;99349.00;;;;9997584;29;20209;-79
2023/09/21 23:12:45;;;;;;;20.47;10.80;;;;;12.20;99333.00;;;;10008873;29;20216;-79
2023/09/21 23:17:48;;;;;;;16.27;9.77;;;;;12.20;99347.00;;;;10003641;29;20209;-78
2023/09/21 23:22:50;;;;;;;14.37;7.87;;;;;12.20;99333.00;;;;10005777;29;20244;-78
2023/09/21 23:27:52;;;;;;;10.97;6.83;;;;;12.20;99326.00;;;;9984526;29;20309;-79
2023/09/21 23:32:54;;;;;;;18.80;8.17;;;;;12.30;99340.00;;;;10013079;29;20847;-79
2023/09/21 23:37:56;;;;;;;12.50;6.93;;;;;12.30;99344.00;;;;10034274;29;20862;-79
2023/09/21 23:42:58;;;;;;;10.23;6.37;;;;;12.30;99349.00;;;;10006851;29;20312;-80
2023/09/21 23:48:00;;;;;;;10.97;6.33;;;;;12.30;99353.00;;;;10016219;29;20213;-78
2023/09/21 23:53:03;;;;;;;13.27;6.20;;;;;12.30;99367.00;;;;10006032;29;20214;-78
2023/09/21 23:58:05;;;;;;;10.90;5.60;;;;;12.30;99364.00;;;;9989304;29;20225;-80
